SHU313 OOMS-OERK
Flight info
| Callsign | SHU313 |
|---|---|
| Flight time | N/A |
| Altitude | 34000 |
| Route | IVETO DCT KURTA DCT GOGMI DCT MIDGU DCT DANUX DCT DAVLU DCT NABIT DCT KATIT DCT KOBOX |
| Aircraft | A320/M-SDE3FGHIRWY/LB1 |
Departure
| Time | 2026-04-28 09:28 |
|---|---|
| Airport | Muscat International Airport (OOMS) |
Arrival
| Time | N/A |
|---|---|
| Airport | King Khalid International Airport (OERK) |
| Time | Latitude | Longitude | Altitude | Speed | Heading |
|---|---|---|---|---|---|
| 2026-04-28 09:14 | 23.60463 | 58.28741 | 37 ft | 0 kts | 265° |
| 2026-04-28 09:19 | 23.60464 | 58.28754 | 58 ft | 3 kts | 264° |
| 2026-04-28 09:19 | 23.60467 | 58.28776 | 23 ft | 3 kts | 260° |
| 2026-04-28 09:19 | 23.60471 | 58.28797 | 37 ft | 3 kts | 255° |
| 2026-04-28 09:20 | 23.60477 | 58.28818 | 34 ft | 3 kts | 246° |
| 2026-04-28 09:20 | 23.60478 | 58.28823 | 35 ft | 0 kts | 242° |
| 2026-04-28 09:22 | 23.60473 | 58.28816 | 37 ft | 2 kts | 226° |
| 2026-04-28 09:22 | 23.60466 | 58.28822 | 36 ft | 1 kts | 116° |
| 2026-04-28 09:23 | 23.60480 | 58.28846 | 36 ft | 4 kts | 29° |
| 2026-04-28 09:23 | 23.60518 | 58.28844 | 37 ft | 9 kts | 355° |
| 2026-04-28 09:23 | 23.60574 | 58.28872 | 36 ft | 9 kts | 58° |
| 2026-04-28 09:23 | 23.60584 | 58.28937 | 37 ft | 10 kts | 84° |
| 2026-04-28 09:24 | 23.60591 | 58.29019 | 35 ft | 10 kts | 84° |
| 2026-04-28 09:24 | 23.60598 | 58.29092 | 37 ft | 9 kts | 85° |
| 2026-04-28 09:24 | 23.60603 | 58.29155 | 37 ft | 8 kts | 85° |
| 2026-04-28 09:24 | 23.60607 | 58.29211 | 36 ft | 8 kts | 85° |
| 2026-04-28 09:25 | 23.60613 | 58.29301 | 36 ft | 15 kts | 85° |
| 2026-04-28 09:25 | 23.60621 | 58.29410 | 36 ft | 14 kts | 84° |
| 2026-04-28 09:25 | 23.60629 | 58.29507 | 36 ft | 12 kts | 85° |
| 2026-04-28 09:25 | 23.60642 | 58.29589 | 36 ft | 10 kts | 63° |
| 2026-04-28 09:26 | 23.60702 | 58.29606 | 35 ft | 10 kts | 355° |
| 2026-04-28 09:26 | 23.60777 | 58.29600 | 34 ft | 12 kts | 355° |
| 2026-04-28 09:26 | 23.60854 | 58.29588 | 34 ft | 8 kts | 333° |
| 2026-04-28 09:26 | 23.60888 | 58.29546 | 35 ft | 8 kts | 288° |
| 2026-04-28 09:27 | 23.60879 | 58.29398 | 36 ft | 28 kts | 265° |
| 2026-04-28 09:27 | 23.60842 | 58.28920 | 38 ft | 95 kts | 265° |
| 2026-04-28 09:27 | 23.60768 | 58.27996 | 37 ft | 147 kts | 265° |
| 2026-04-28 09:28 | 23.60688 | 58.26749 | 180 ft | 174 kts | 266° |
| 2026-04-28 09:28 | 23.60602 | 58.25515 | 981 ft | 162 kts | 270° |
| 2026-04-28 09:28 | 23.60498 | 58.24255 | 1453 ft | 177 kts | 265° |
| 2026-04-28 09:28 | 23.60304 | 58.22870 | 1634 ft | 197 kts | 266° |
| 2026-04-28 09:29 | 23.60221 | 58.21308 | 1773 ft | 218 kts | 271° |
| 2026-04-28 09:29 | 23.60202 | 58.19576 | 2073 ft | 235 kts | 272° |
| 2026-04-28 09:29 | 23.60196 | 58.17785 | 2733 ft | 237 kts | 271° |
| 2026-04-28 09:29 | 23.60190 | 58.15977 | 3431 ft | 240 kts | 271° |
| 2026-04-28 09:30 | 23.60181 | 58.14147 | 4127 ft | 243 kts | 270° |
| 2026-04-28 09:30 | 23.60167 | 58.12297 | 4852 ft | 245 kts | 270° |
| 2026-04-28 09:30 | 23.60150 | 58.10439 | 5592 ft | 245 kts | 270° |
| 2026-04-28 09:30 | 23.60131 | 58.08577 | 6288 ft | 246 kts | 270° |
| 2026-04-28 09:31 | 23.60112 | 58.06704 | 6974 ft | 247 kts | 270° |
| 2026-04-28 09:31 | 23.60093 | 58.04823 | 7663 ft | 249 kts | 270° |
| 2026-04-28 09:31 | 23.60074 | 58.02928 | 8351 ft | 252 kts | 271° |
| 2026-04-28 09:31 | 23.60055 | 58.01011 | 9052 ft | 253 kts | 271° |
| 2026-04-28 09:32 | 23.60037 | 57.99082 | 9740 ft | 256 kts | 271° |
| 2026-04-28 09:32 | 23.60019 | 57.97131 | 10357 ft | 258 kts | 271° |
| 2026-04-28 09:32 | 23.59999 | 57.95165 | 10979 ft | 261 kts | 271° |
| 2026-04-28 09:32 | 23.59978 | 57.93182 | 11593 ft | 263 kts | 270° |
| 2026-04-28 09:33 | 23.59955 | 57.91169 | 12162 ft | 269 kts | 270° |
| 2026-04-28 09:33 | 23.59933 | 57.89046 | 12307 ft | 291 kts | 270° |
| 2026-04-28 09:33 | 23.59909 | 57.86788 | 12438 ft | 312 kts | 270° |
| 2026-04-28 09:33 | 23.59881 | 57.84345 | 12565 ft | 332 kts | 270° |
| 2026-04-28 09:34 | 23.59850 | 57.81752 | 12695 ft | 351 kts | 270° |
| 2026-04-28 09:34 | 23.59819 | 57.79035 | 12964 ft | 363 kts | 270° |
| 2026-04-28 09:34 | 23.59786 | 57.76266 | 13460 ft | 368 kts | 270° |
| 2026-04-28 09:34 | 23.59751 | 57.73461 | 13974 ft | 371 kts | 270° |
| 2026-04-28 09:35 | 23.59716 | 57.70638 | 14470 ft | 374 kts | 269° |
| 2026-04-28 09:35 | 23.59680 | 57.67790 | 14945 ft | 377 kts | 269° |
| 2026-04-28 09:35 | 23.59646 | 57.64921 | 15423 ft | 380 kts | 269° |
| 2026-04-28 09:35 | 23.59610 | 57.62031 | 15881 ft | 383 kts | 268° |
| 2026-04-28 09:36 | 23.59573 | 57.59121 | 16374 ft | 384 kts | 268° |
| 2026-04-28 09:36 | 23.59536 | 57.56195 | 16812 ft | 388 kts | 268° |
| 2026-04-28 09:36 | 23.59497 | 57.53247 | 17252 ft | 391 kts | 268° |
| 2026-04-28 09:36 | 23.59456 | 57.50276 | 17681 ft | 393 kts | 268° |
| 2026-04-28 09:37 | 23.59413 | 57.47283 | 18123 ft | 396 kts | 267° |
| 2026-04-28 09:37 | 23.59371 | 57.44271 | 18514 ft | 398 kts | 268° |
| 2026-04-28 09:37 | 23.59329 | 57.41252 | 18921 ft | 399 kts | 268° |
| 2026-04-28 09:37 | 23.59287 | 57.38220 | 19330 ft | 401 kts | 268° |
| 2026-04-28 09:38 | 23.59244 | 57.35174 | 19737 ft | 403 kts | 268° |
| 2026-04-28 09:38 | 23.59198 | 57.32120 | 20142 ft | 404 kts | 268° |
| 2026-04-28 09:38 | 23.59153 | 57.29055 | 20545 ft | 405 kts | 268° |
| 2026-04-28 09:38 | 23.59109 | 57.25978 | 20965 ft | 407 kts | 268° |
| 2026-04-28 09:39 | 23.59063 | 57.22891 | 21371 ft | 408 kts | 268° |
| 2026-04-28 09:39 | 23.59014 | 57.19788 | 21762 ft | 410 kts | 268° |
| 2026-04-28 09:39 | 23.58962 | 57.16673 | 22158 ft | 411 kts | 269° |
| 2026-04-28 09:39 | 23.58911 | 57.13584 | 22565 ft | 412 kts | 269° |
| 2026-04-28 09:40 | 23.58993 | 57.10456 | 22942 ft | 414 kts | 275° |
| 2026-04-28 09:40 | 23.59277 | 57.07323 | 23280 ft | 417 kts | 275° |
| 2026-04-28 09:40 | 23.59565 | 57.04176 | 23613 ft | 418 kts | 275° |
| 2026-04-28 09:40 | 23.59855 | 57.01012 | 23915 ft | 420 kts | 275° |
| 2026-04-28 09:41 | 23.60145 | 56.97844 | 24243 ft | 421 kts | 275° |
| 2026-04-28 09:41 | 23.60436 | 56.94665 | 24565 ft | 422 kts | 275° |
| 2026-04-28 09:41 | 23.60723 | 56.91483 | 24862 ft | 423 kts | 274° |
| 2026-04-28 09:41 | 23.61006 | 56.88282 | 25176 ft | 424 kts | 274° |
| 2026-04-28 09:42 | 23.61289 | 56.85076 | 25505 ft | 425 kts | 274° |
| 2026-04-28 09:42 | 23.61573 | 56.81863 | 25831 ft | 425 kts | 274° |
| 2026-04-28 09:42 | 23.61858 | 56.78646 | 26144 ft | 426 kts | 274° |
| 2026-04-28 09:42 | 23.62144 | 56.75427 | 26411 ft | 427 kts | 274° |
| 2026-04-28 09:43 | 23.62428 | 56.72201 | 26703 ft | 428 kts | 274° |
| 2026-04-28 09:43 | 23.62711 | 56.68972 | 26967 ft | 428 kts | 274° |
| 2026-04-28 09:43 | 23.62997 | 56.65730 | 27223 ft | 430 kts | 274° |
| 2026-04-28 09:43 | 23.63285 | 56.62481 | 27487 ft | 431 kts | 274° |
| 2026-04-28 09:44 | 23.63477 | 56.60321 | 27665 ft | 432 kts | 274° |
| 2026-04-28 09:44 | 23.63765 | 56.57056 | 27930 ft | 433 kts | 274° |
| 2026-04-28 09:44 | 23.64050 | 56.53782 | 28207 ft | 434 kts | 274° |
| 2026-04-28 09:44 | 23.64333 | 56.50513 | 28561 ft | 432 kts | 274° |
| 2026-04-28 09:45 | 23.64614 | 56.47247 | 28960 ft | 431 kts | 274° |
| 2026-04-28 09:45 | 23.64893 | 56.44004 | 29340 ft | 429 kts | 274° |
| 2026-04-28 09:45 | 23.65172 | 56.40769 | 29716 ft | 427 kts | 274° |
| 2026-04-28 09:45 | 23.65448 | 56.37547 | 30055 ft | 426 kts | 274° |
| 2026-04-28 09:46 | 23.65719 | 56.34339 | 30344 ft | 425 kts | 274° |
| 2026-04-28 09:46 | 23.65991 | 56.31136 | 30614 ft | 424 kts | 274° |
| 2026-04-28 09:46 | 23.66265 | 56.27929 | 30904 ft | 423 kts | 274° |
| 2026-04-28 09:46 | 23.66538 | 56.24740 | 31199 ft | 422 kts | 274° |
| 2026-04-28 09:47 | 23.66811 | 56.21553 | 31483 ft | 421 kts | 275° |
| 2026-04-28 09:47 | 23.67080 | 56.18366 | 31731 ft | 421 kts | 275° |
| 2026-04-28 09:47 | 23.67348 | 56.15184 | 31977 ft | 421 kts | 275° |
| 2026-04-28 09:47 | 23.67616 | 56.12002 | 32223 ft | 421 kts | 275° |
| 2026-04-28 09:48 | 23.67879 | 56.08864 | 32456 ft | 421 kts | 275° |
| 2026-04-28 09:48 | 23.68147 | 56.05683 | 32691 ft | 421 kts | 276° |
| 2026-04-28 09:48 | 23.68417 | 56.02510 | 32933 ft | 421 kts | 276° |
| 2026-04-28 09:48 | 23.68685 | 55.99331 | 33160 ft | 420 kts | 276° |
| 2026-04-28 09:49 | 23.68947 | 55.96155 | 33397 ft | 420 kts | 276° |
| 2026-04-28 09:49 | 23.69205 | 55.92980 | 33630 ft | 420 kts | 276° |
| 2026-04-28 09:49 | 23.69439 | 55.89801 | 33802 ft | 421 kts | 272° |
| 2026-04-28 09:49 | 23.69137 | 55.86620 | 33832 ft | 425 kts | 258° |
| 2026-04-28 09:50 | 23.68042 | 55.83603 | 33835 ft | 432 kts | 244° |
| 2026-04-28 09:50 | 23.66199 | 55.80980 | 33833 ft | 443 kts | 229° |
| 2026-04-28 09:50 | 23.63691 | 55.78973 | 33833 ft | 455 kts | 212° |
| 2026-04-28 09:50 | 23.60750 | 55.77607 | 33827 ft | 461 kts | 207° |
| 2026-04-28 09:51 | 23.54765 | 55.75055 | 33824 ft | 462 kts | 207° |
| 2026-04-28 09:51 | 23.48770 | 55.72511 | 33822 ft | 462 kts | 207° |
| 2026-04-28 09:52 | 23.42781 | 55.69953 | 33819 ft | 462 kts | 207° |
| 2026-04-28 09:52 | 23.36798 | 55.67386 | 33815 ft | 462 kts | 207° |
| 2026-04-28 09:53 | 23.30816 | 55.64829 | 33811 ft | 462 kts | 207° |
| 2026-04-28 09:53 | 23.24866 | 55.62293 | 33811 ft | 462 kts | 207° |
| 2026-04-28 09:54 | 23.18882 | 55.59743 | 33801 ft | 462 kts | 207° |
| 2026-04-28 09:54 | 23.12892 | 55.57194 | 33808 ft | 462 kts | 207° |
| 2026-04-28 09:55 | 23.06907 | 55.54649 | 33809 ft | 462 kts | 207° |
| 2026-04-28 09:55 | 23.00756 | 55.52491 | 33810 ft | 467 kts | 199° |
| 2026-04-28 09:56 | 22.94444 | 55.50781 | 33810 ft | 467 kts | 199° |
| 2026-04-28 09:56 | 22.88129 | 55.49075 | 33802 ft | 467 kts | 199° |
| 2026-04-28 09:57 | 22.81819 | 55.47377 | 33804 ft | 467 kts | 199° |
| 2026-04-28 09:57 | 22.75512 | 55.45676 | 33801 ft | 467 kts | 199° |
| 2026-04-28 09:58 | 22.69210 | 55.43978 | 33799 ft | 466 kts | 199° |
| 2026-04-28 09:58 | 22.62953 | 55.42291 | 33780 ft | 466 kts | 199° |
| 2026-04-28 09:59 | 22.56655 | 55.40592 | 33778 ft | 467 kts | 199° |
| 2026-04-28 09:59 | 22.53530 | 55.39552 | 33773 ft | 459 kts | 210° |
| 2026-04-28 09:59 | 22.50880 | 55.37805 | 33770 ft | 448 kts | 225° |
| 2026-04-28 10:00 | 22.48771 | 55.35382 | 33769 ft | 438 kts | 239° |
| 2026-04-28 10:00 | 22.47345 | 55.32508 | 33766 ft | 431 kts | 253° |
| 2026-04-28 10:00 | 22.46658 | 55.29389 | 33764 ft | 425 kts | 267° |
| 2026-04-28 10:00 | 22.46719 | 55.26217 | 33754 ft | 422 kts | 279° |
| 2026-04-28 10:01 | 22.47594 | 55.19919 | 33754 ft | 424 kts | 279° |
| 2026-04-28 10:01 | 22.48464 | 55.13597 | 33757 ft | 426 kts | 279° |
| 2026-04-28 10:02 | 22.49330 | 55.07251 | 33762 ft | 427 kts | 279° |
| 2026-04-28 10:02 | 22.50198 | 55.00895 | 33762 ft | 427 kts | 279° |
| 2026-04-28 10:03 | 22.51067 | 54.94537 | 33759 ft | 428 kts | 279° |
| 2026-04-28 10:03 | 22.51928 | 54.88164 | 33771 ft | 428 kts | 279° |
| 2026-04-28 10:04 | 22.52787 | 54.81803 | 33782 ft | 428 kts | 279° |
| 2026-04-28 10:04 | 22.53634 | 54.75481 | 33783 ft | 427 kts | 278° |
| 2026-04-28 10:05 | 22.54487 | 54.69124 | 33779 ft | 427 kts | 279° |
| 2026-04-28 10:05 | 22.55345 | 54.62768 | 33780 ft | 427 kts | 279° |
| 2026-04-28 10:06 | 22.56196 | 54.56408 | 33777 ft | 427 kts | 279° |
| 2026-04-28 10:06 | 22.57051 | 54.50057 | 33775 ft | 427 kts | 279° |
| 2026-04-28 10:07 | 22.57898 | 54.43700 | 33770 ft | 427 kts | 279° |
| 2026-04-28 10:07 | 22.58733 | 54.37339 | 33771 ft | 427 kts | 278° |
| 2026-04-28 10:08 | 22.59562 | 54.30985 | 33769 ft | 427 kts | 278° |
| 2026-04-28 10:08 | 22.60399 | 54.24621 | 33770 ft | 427 kts | 279° |
| 2026-04-28 10:09 | 22.61232 | 54.18307 | 33780 ft | 426 kts | 278° |
| 2026-04-28 10:09 | 22.62061 | 54.11961 | 33781 ft | 426 kts | 278° |
| 2026-04-28 10:10 | 22.62879 | 54.05615 | 33783 ft | 425 kts | 278° |
| 2026-04-28 10:10 | 22.63701 | 53.99281 | 33774 ft | 425 kts | 278° |
| 2026-04-28 10:11 | 22.64524 | 53.92951 | 33772 ft | 425 kts | 278° |
| 2026-04-28 10:11 | 22.65342 | 53.86620 | 33770 ft | 425 kts | 278° |
| 2026-04-28 10:12 | 22.66151 | 53.80284 | 33765 ft | 425 kts | 278° |
| 2026-04-28 10:12 | 22.66964 | 53.73948 | 33763 ft | 425 kts | 278° |
| 2026-04-28 10:13 | 22.67776 | 53.67614 | 33756 ft | 425 kts | 278° |
| 2026-04-28 10:13 | 22.68583 | 53.61271 | 33755 ft | 425 kts | 278° |
| 2026-04-28 10:14 | 22.69102 | 53.54895 | 33755 ft | 427 kts | 268° |
| 2026-04-28 10:14 | 22.68149 | 53.48537 | 33766 ft | 428 kts | 261° |
| 2026-04-28 10:15 | 22.67027 | 53.42205 | 33774 ft | 428 kts | 261° |
| 2026-04-28 10:15 | 22.66053 | 53.35869 | 33773 ft | 425 kts | 269° |
| 2026-04-28 10:16 | 22.66704 | 53.29594 | 33770 ft | 423 kts | 282° |
| 2026-04-28 10:16 | 22.67951 | 53.23369 | 33758 ft | 423 kts | 282° |
| 2026-04-28 10:17 | 22.69177 | 53.17126 | 33751 ft | 424 kts | 282° |
| 2026-04-28 10:17 | 22.70404 | 53.10876 | 33750 ft | 424 kts | 282° |
| 2026-04-28 10:18 | 22.71628 | 53.04625 | 33753 ft | 424 kts | 282° |
| 2026-04-28 10:18 | 22.72852 | 52.98376 | 33757 ft | 424 kts | 282° |
| 2026-04-28 10:19 | 22.74076 | 52.92114 | 33754 ft | 424 kts | 282° |
| 2026-04-28 10:19 | 22.75299 | 52.85858 | 33754 ft | 424 kts | 282° |
| 2026-04-28 10:20 | 22.76516 | 52.79600 | 33770 ft | 424 kts | 282° |
| 2026-04-28 10:20 | 22.77730 | 52.73354 | 33768 ft | 423 kts | 282° |
| 2026-04-28 10:21 | 22.78937 | 52.67154 | 33766 ft | 423 kts | 282° |
| 2026-04-28 10:21 | 22.80140 | 52.60921 | 33765 ft | 422 kts | 282° |
| 2026-04-28 10:22 | 22.81341 | 52.54691 | 33763 ft | 422 kts | 282° |
| 2026-04-28 10:22 | 22.82796 | 52.48543 | 33758 ft | 422 kts | 291° |
| 2026-04-28 10:23 | 22.85559 | 52.42924 | 33759 ft | 423 kts | 297° |
| 2026-04-28 10:23 | 22.88435 | 52.37372 | 33760 ft | 423 kts | 297° |
| 2026-04-28 10:24 | 22.91310 | 52.31809 | 33770 ft | 422 kts | 297° |
| 2026-04-28 10:24 | 22.94165 | 52.26251 | 33770 ft | 421 kts | 297° |
| 2026-04-28 10:25 | 22.97016 | 52.20697 | 33768 ft | 421 kts | 297° |
| 2026-04-28 10:25 | 22.99868 | 52.15154 | 33766 ft | 421 kts | 297° |
| 2026-04-28 10:26 | 23.02712 | 52.09606 | 33760 ft | 420 kts | 297° |
| 2026-04-28 10:26 | 23.05555 | 52.04063 | 33755 ft | 420 kts | 297° |
| 2026-04-28 10:27 | 23.08372 | 51.98553 | 33749 ft | 420 kts | 297° |
| 2026-04-28 10:27 | 23.11204 | 51.93000 | 33751 ft | 420 kts | 297° |
| 2026-04-28 10:28 | 23.14049 | 51.87437 | 33744 ft | 421 kts | 297° |
| 2026-04-28 10:29 | 23.18311 | 51.79098 | 33748 ft | 421 kts | 297° |
| 2026-04-28 10:29 | 23.21140 | 51.73528 | 33750 ft | 421 kts | 297° |
| 2026-04-28 10:30 | 23.23965 | 51.67953 | 33762 ft | 421 kts | 296° |
| 2026-04-28 10:30 | 23.26315 | 51.63323 | 33763 ft | 420 kts | 296° |
| 2026-04-28 10:31 | 23.29146 | 51.57757 | 33766 ft | 420 kts | 296° |
| 2026-04-28 10:31 | 23.31977 | 51.52187 | 33762 ft | 420 kts | 296° |
| 2026-04-28 10:32 | 23.34795 | 51.46614 | 33759 ft | 420 kts | 296° |
| 2026-04-28 10:32 | 23.37614 | 51.41042 | 33757 ft | 420 kts | 296° |
| 2026-04-28 10:33 | 23.40412 | 51.35513 | 33773 ft | 419 kts | 296° |
| 2026-04-28 10:33 | 23.43225 | 51.29945 | 33777 ft | 419 kts | 296° |
| 2026-04-28 10:34 | 23.46023 | 51.24385 | 33778 ft | 418 kts | 296° |
| 2026-04-28 10:34 | 23.48817 | 51.18835 | 33774 ft | 417 kts | 296° |
| 2026-04-28 10:35 | 23.51594 | 51.13326 | 33769 ft | 417 kts | 296° |
| 2026-04-28 10:35 | 23.54381 | 51.07788 | 33785 ft | 417 kts | 296° |
| 2026-04-28 10:36 | 23.57164 | 51.02242 | 33781 ft | 416 kts | 296° |
| 2026-04-28 10:36 | 23.59935 | 50.96708 | 33778 ft | 416 kts | 296° |
| 2026-04-28 10:37 | 23.62704 | 50.91176 | 33775 ft | 415 kts | 296° |
| 2026-04-28 10:37 | 23.65471 | 50.85646 | 33768 ft | 415 kts | 296° |
| 2026-04-28 10:38 | 23.68220 | 50.80145 | 33765 ft | 415 kts | 296° |
| 2026-04-28 10:38 | 23.70982 | 50.74608 | 33773 ft | 415 kts | 295° |
| 2026-04-28 10:39 | 23.73745 | 50.69075 | 33779 ft | 415 kts | 295° |
| 2026-04-28 10:39 | 23.76501 | 50.63535 | 33774 ft | 415 kts | 295° |
| 2026-04-28 10:40 | 23.79252 | 50.57997 | 33773 ft | 414 kts | 295° |
| 2026-04-28 10:40 | 23.82002 | 50.52468 | 33772 ft | 414 kts | 295° |
| 2026-04-28 10:41 | 23.84737 | 50.46966 | 33768 ft | 414 kts | 295° |
| 2026-04-28 10:41 | 23.87477 | 50.41430 | 33784 ft | 414 kts | 295° |
| 2026-04-28 10:42 | 23.90225 | 50.35889 | 33786 ft | 414 kts | 295° |
| 2026-04-28 10:42 | 23.92961 | 50.30353 | 33786 ft | 414 kts | 295° |
| 2026-04-28 10:43 | 23.95702 | 50.24807 | 33785 ft | 414 kts | 295° |
| 2026-04-28 10:43 | 23.98422 | 50.19300 | 33784 ft | 414 kts | 295° |
| 2026-04-28 10:44 | 24.01149 | 50.13761 | 33798 ft | 413 kts | 295° |
| 2026-04-28 10:44 | 24.03867 | 50.08229 | 33794 ft | 412 kts | 295° |
| 2026-04-28 10:45 | 24.06586 | 50.02706 | 33791 ft | 412 kts | 295° |
| 2026-04-28 10:45 | 24.09306 | 49.97177 | 33788 ft | 412 kts | 295° |
| 2026-04-28 10:46 | 24.12018 | 49.91652 | 33790 ft | 412 kts | 295° |
| 2026-04-28 10:46 | 24.14734 | 49.86126 | 33787 ft | 411 kts | 294° |
| 2026-04-28 10:47 | 24.17416 | 49.80632 | 33806 ft | 411 kts | 294° |
| 2026-04-28 10:47 | 24.20109 | 49.75113 | 33800 ft | 411 kts | 294° |
| 2026-04-28 10:48 | 24.22805 | 49.69592 | 33799 ft | 410 kts | 294° |
| 2026-04-28 10:48 | 24.25499 | 49.64070 | 33797 ft | 410 kts | 294° |
| 2026-04-28 10:49 | 24.28194 | 49.58551 | 33796 ft | 410 kts | 294° |
| 2026-04-28 10:49 | 24.30884 | 49.53030 | 33811 ft | 410 kts | 294° |
| 2026-04-28 10:50 | 24.33565 | 49.47510 | 33805 ft | 410 kts | 294° |
| 2026-04-28 10:50 | 24.36244 | 49.41979 | 33803 ft | 410 kts | 294° |
| 2026-04-28 10:51 | 24.38899 | 49.36492 | 33800 ft | 410 kts | 294° |
| 2026-04-28 10:51 | 24.41574 | 49.30969 | 33797 ft | 409 kts | 294° |
| 2026-04-28 10:52 | 24.44247 | 49.25452 | 33798 ft | 409 kts | 294° |
| 2026-04-28 10:52 | 24.46920 | 49.19932 | 33808 ft | 409 kts | 293° |
| 2026-04-28 10:53 | 24.49572 | 49.14450 | 33794 ft | 409 kts | 293° |
| 2026-04-28 10:53 | 24.52233 | 49.08923 | 33790 ft | 408 kts | 293° |
| 2026-04-28 10:54 | 24.54886 | 49.03407 | 33787 ft | 408 kts | 293° |
| 2026-04-28 10:54 | 24.57540 | 48.97881 | 33791 ft | 409 kts | 293° |
| 2026-04-28 10:55 | 24.60201 | 48.92355 | 33790 ft | 409 kts | 293° |
| 2026-04-28 10:55 | 24.62852 | 48.86835 | 33794 ft | 409 kts | 293° |
| 2026-04-28 10:56 | 24.65501 | 48.81299 | 33793 ft | 409 kts | 293° |
| 2026-04-28 10:56 | 24.68133 | 48.75799 | 33793 ft | 409 kts | 293° |
| 2026-04-28 10:57 | 24.70783 | 48.70269 | 33801 ft | 409 kts | 293° |
| 2026-04-28 10:57 | 24.73427 | 48.64737 | 33816 ft | 408 kts | 293° |
| 2026-04-28 10:58 | 24.76059 | 48.59210 | 33808 ft | 408 kts | 293° |
| 2026-04-28 10:58 | 24.78687 | 48.53683 | 33818 ft | 407 kts | 292° |
| 2026-04-28 10:59 | 24.81320 | 48.48155 | 33817 ft | 408 kts | 293° |
| 2026-04-28 10:59 | 24.83951 | 48.42632 | 33821 ft | 408 kts | 292° |
| 2026-04-28 11:00 | 24.86576 | 48.37094 | 33839 ft | 407 kts | 292° |
| 2026-04-28 11:00 | 24.89196 | 48.31570 | 33833 ft | 407 kts | 292° |
| 2026-04-28 11:01 | 24.91812 | 48.26046 | 33837 ft | 406 kts | 292° |
| 2026-04-28 11:01 | 24.94412 | 48.20564 | 33839 ft | 406 kts | 292° |
| 2026-04-28 11:02 | 24.97027 | 48.15039 | 33839 ft | 406 kts | 292° |
| 2026-04-28 11:02 | 24.99630 | 48.09515 | 33844 ft | 406 kts | 292° |
| 2026-04-28 11:03 | 25.02230 | 48.03994 | 33881 ft | 406 kts | 292° |
| 2026-04-28 11:03 | 25.04826 | 47.98474 | 33867 ft | 405 kts | 292° |
| 2026-04-28 11:04 | 25.07416 | 47.92950 | 33869 ft | 405 kts | 292° |
| 2026-04-28 11:04 | 25.10541 | 47.87735 | 33868 ft | 422 kts | 311° |
| 2026-04-28 11:04 | 25.13050 | 47.85947 | 33868 ft | 441 kts | 329° |
| 2026-04-28 11:05 | 25.16092 | 47.85115 | 33708 ft | 466 kts | 348° |
| 2026-04-28 11:05 | 25.19396 | 47.85475 | 33370 ft | 490 kts | 6° |
| 2026-04-28 11:05 | 25.22678 | 47.86738 | 32188 ft | 510 kts | 15° |
| 2026-04-28 11:05 | 25.26025 | 47.88137 | 30896 ft | 517 kts | 9° |
| 2026-04-28 11:06 | 25.29507 | 47.88892 | 29575 ft | 503 kts | 356° |
| 2026-04-28 11:06 | 25.32935 | 47.88790 | 28197 ft | 484 kts | 343° |
| 2026-04-28 11:06 | 25.36085 | 47.87888 | 26929 ft | 464 kts | 330° |
| 2026-04-28 11:06 | 25.38879 | 47.86291 | 25783 ft | 443 kts | 318° |
| 2026-04-28 11:07 | 25.41181 | 47.84166 | 24988 ft | 418 kts | 306° |
| 2026-04-28 11:07 | 25.42968 | 47.81751 | 24468 ft | 398 kts | 297° |
| 2026-04-28 11:07 | 25.44528 | 47.79249 | 23975 ft | 394 kts | 297° |
| 2026-04-28 11:07 | 25.46081 | 47.76767 | 23471 ft | 389 kts | 297° |
| 2026-04-28 11:08 | 25.47615 | 47.74316 | 22921 ft | 385 kts | 298° |
| 2026-04-28 11:08 | 25.49124 | 47.71900 | 22452 ft | 378 kts | 298° |
| 2026-04-28 11:08 | 25.50602 | 47.69525 | 22026 ft | 372 kts | 297° |
| 2026-04-28 11:08 | 25.52059 | 47.67178 | 21599 ft | 367 kts | 297° |
| 2026-04-28 11:09 | 25.53411 | 47.64837 | 21338 ft | 351 kts | 290° |
| 2026-04-28 11:09 | 25.54157 | 47.62344 | 21279 ft | 337 kts | 274° |
| 2026-04-28 11:09 | 25.54198 | 47.59784 | 21204 ft | 331 kts | 259° |
| 2026-04-28 11:09 | 25.53564 | 47.57359 | 21132 ft | 329 kts | 244° |
| 2026-04-28 11:10 | 25.52340 | 47.55221 | 21054 ft | 330 kts | 234° |
| 2026-04-28 11:10 | 25.50978 | 47.53181 | 20988 ft | 330 kts | 235° |
| 2026-04-28 11:10 | 25.49616 | 47.51136 | 20920 ft | 330 kts | 235° |
| 2026-04-28 11:10 | 25.48255 | 47.49088 | 20828 ft | 330 kts | 235° |
| 2026-04-28 11:11 | 25.46898 | 47.47042 | 20756 ft | 330 kts | 235° |
| 2026-04-28 11:11 | 25.45542 | 47.44996 | 20683 ft | 329 kts | 235° |
| 2026-04-28 11:11 | 25.44204 | 47.42980 | 20613 ft | 329 kts | 235° |
| 2026-04-28 11:11 | 25.42847 | 47.40940 | 20557 ft | 329 kts | 235° |
| 2026-04-28 11:12 | 25.41492 | 47.38905 | 20476 ft | 329 kts | 235° |
| 2026-04-28 11:12 | 25.40135 | 47.36862 | 20416 ft | 329 kts | 235° |
| 2026-04-28 11:12 | 25.38779 | 47.34821 | 20348 ft | 329 kts | 235° |
| 2026-04-28 11:12 | 25.37426 | 47.32788 | 20277 ft | 329 kts | 235° |
| 2026-04-28 11:13 | 25.36067 | 47.30751 | 20209 ft | 328 kts | 235° |
| 2026-04-28 11:13 | 25.34715 | 47.28721 | 20145 ft | 328 kts | 235° |
| 2026-04-28 11:13 | 25.33363 | 47.26688 | 20076 ft | 328 kts | 235° |
| 2026-04-28 11:13 | 25.32007 | 47.24653 | 19866 ft | 328 kts | 235° |
| 2026-04-28 11:14 | 25.30659 | 47.22637 | 19595 ft | 322 kts | 235° |
| 2026-04-28 11:14 | 25.29350 | 47.20685 | 19482 ft | 310 kts | 235° |
| 2026-04-28 11:14 | 25.28085 | 47.18798 | 19278 ft | 302 kts | 235° |
| 2026-04-28 11:14 | 25.26848 | 47.16949 | 19046 ft | 298 kts | 234° |
| 2026-04-28 11:15 | 25.25396 | 47.15330 | 18818 ft | 300 kts | 216° |
| 2026-04-28 11:15 | 25.23435 | 47.14501 | 18590 ft | 310 kts | 192° |
| 2026-04-28 11:15 | 25.21247 | 47.14703 | 18253 ft | 326 kts | 169° |
| 2026-04-28 11:15 | 25.19122 | 47.15801 | 17509 ft | 342 kts | 158° |
| 2026-04-28 11:16 | 25.17072 | 47.17079 | 16961 ft | 335 kts | 156° |
| 2026-04-28 11:16 | 25.15079 | 47.18381 | 16348 ft | 331 kts | 155° |
| 2026-04-28 11:16 | 25.13113 | 47.19671 | 15722 ft | 327 kts | 155° |
| 2026-04-28 11:16 | 25.11163 | 47.20934 | 15122 ft | 323 kts | 156° |
| 2026-04-28 11:17 | 25.09230 | 47.22168 | 14554 ft | 319 kts | 156° |
| 2026-04-28 11:17 | 25.07954 | 47.22940 | 14224 ft | 311 kts | 162° |
| 2026-04-28 11:17 | 25.05960 | 47.23393 | 14050 ft | 279 kts | 188° |
| 2026-04-28 11:17 | 25.04179 | 47.22921 | 13865 ft | 254 kts | 211° |
| 2026-04-28 11:18 | 25.02829 | 47.21740 | 13673 ft | 247 kts | 232° |
| 2026-04-28 11:18 | 25.01917 | 47.20135 | 13356 ft | 247 kts | 240° |
| 2026-04-28 11:18 | 25.01064 | 47.18489 | 13023 ft | 248 kts | 239° |
| 2026-04-28 11:18 | 25.00212 | 47.16845 | 12775 ft | 245 kts | 239° |
| 2026-04-28 11:19 | 24.99364 | 47.15215 | 12384 ft | 244 kts | 239° |
| 2026-04-28 11:19 | 24.98524 | 47.13604 | 11957 ft | 241 kts | 239° |
| 2026-04-28 11:19 | 24.97697 | 47.12015 | 11581 ft | 237 kts | 239° |
| 2026-04-28 11:19 | 24.96883 | 47.10445 | 11231 ft | 234 kts | 239° |
| 2026-04-28 11:20 | 24.96073 | 47.08886 | 10900 ft | 235 kts | 239° |
| 2026-04-28 11:20 | 24.95259 | 47.07322 | 10553 ft | 236 kts | 238° |
| 2026-04-28 11:20 | 24.94443 | 47.05753 | 10202 ft | 236 kts | 239° |
| 2026-04-28 11:20 | 24.93909 | 47.04041 | 9851 ft | 243 kts | 264° |
| 2026-04-28 11:21 | 24.94374 | 47.02214 | 9457 ft | 262 kts | 299° |
| 2026-04-28 11:21 | 24.95760 | 47.00831 | 9071 ft | 274 kts | 320° |
| 2026-04-28 11:21 | 24.97390 | 46.99732 | 8734 ft | 275 kts | 326° |
| 2026-04-28 11:21 | 24.99049 | 46.98740 | 8437 ft | 274 kts | 327° |
| 2026-04-28 11:22 | 25.00708 | 46.97768 | 8250 ft | 265 kts | 324° |
| 2026-04-28 11:22 | 25.01961 | 46.96410 | 8134 ft | 245 kts | 290° |
| 2026-04-28 11:22 | 25.02197 | 46.94647 | 7882 ft | 232 kts | 254° |
| 2026-04-28 11:22 | 25.01567 | 46.93025 | 7566 ft | 231 kts | 240° |
| 2026-04-28 11:23 | 25.00740 | 46.91489 | 7243 ft | 235 kts | 237° |
| 2026-04-28 11:23 | 24.99862 | 46.89950 | 6936 ft | 238 kts | 237° |
| 2026-04-28 11:23 | 24.98984 | 46.88399 | 6628 ft | 239 kts | 238° |
| 2026-04-28 11:23 | 24.98068 | 46.86866 | 6296 ft | 239 kts | 228° |
| 2026-04-28 11:24 | 24.96643 | 46.85978 | 5980 ft | 242 kts | 190° |
| 2026-04-28 11:24 | 24.94974 | 46.86226 | 5671 ft | 247 kts | 161° |
| 2026-04-28 11:24 | 24.93461 | 46.87079 | 5361 ft | 240 kts | 150° |
| 2026-04-28 11:24 | 24.92088 | 46.88068 | 5079 ft | 234 kts | 147° |
| 2026-04-28 11:25 | 24.90728 | 46.89077 | 4773 ft | 237 kts | 148° |
| 2026-04-28 11:25 | 24.89347 | 46.90074 | 4451 ft | 236 kts | 149° |
| 2026-04-28 11:25 | 24.87988 | 46.90950 | 4192 ft | 219 kts | 160° |
| 2026-04-28 11:25 | 24.86590 | 46.91229 | 3984 ft | 192 kts | 187° |
| 2026-04-28 11:26 | 24.85374 | 46.90920 | 4002 ft | 170 kts | 205° |